createdAt,value
2019-05-11T00:02:12.248Z,9.00
2019-05-11T00:04:41.860Z,8.80
2019-05-11T00:07:11.528Z,8.60
2019-05-11T00:09:56.537Z,8.60
2019-05-11T00:12:12.316Z,8.50
2019-05-11T00:14:41.857Z,8.40
2019-05-11T00:17:11.395Z,8.40
2019-05-11T00:19:40.962Z,8.80
2019-05-11T00:22:10.530Z,8.90
2019-05-11T00:24:40.095Z,8.90
2019-05-11T00:27:09.757Z,8.90
2019-05-11T00:29:39.322Z,8.90
2019-05-11T00:32:08.914Z,8.80
2019-05-11T00:34:38.443Z,8.90
2019-05-11T00:37:08.010Z,8.90
2019-05-11T00:39:37.621Z,8.90
2019-05-11T00:42:07.210Z,8.90
2019-05-11T00:44:36.732Z,8.80
2019-05-11T00:47:06.301Z,8.70
2019-05-11T00:49:35.901Z,8.60
2019-05-11T00:52:05.474Z,8.70
2019-05-11T00:54:35.027Z,8.60
2019-05-11T00:57:04.589Z,8.60
2019-05-11T00:59:34.165Z,8.50
2019-05-11T01:02:03.713Z,8.40
2019-05-11T01:04:33.231Z,8.30
2019-05-11T01:07:03.064Z,8.10
2019-05-11T01:09:32.625Z,8.00
2019-05-11T01:12:02.171Z,8.10
2019-05-11T01:14:32.705Z,8.00
2019-05-11T01:17:02.281Z,8.00
2019-05-11T01:19:31.844Z,8.00
2019-05-11T01:22:01.443Z,7.90
2019-05-11T01:24:31.094Z,7.90
2019-05-11T01:27:00.652Z,7.80
2019-05-11T01:29:32.988Z,7.80
2019-05-11T01:32:02.601Z,7.80
2019-05-11T01:34:32.172Z,7.80
2019-05-11T01:37:01.728Z,7.70
2019-05-11T01:39:31.248Z,7.80
2019-05-11T01:42:00.804Z,7.70
2019-05-11T01:44:30.365Z,7.60
2019-05-11T01:47:00.010Z,7.40
2019-05-11T01:49:29.592Z,7.40
2019-05-11T01:51:59.179Z,7.40
2019-05-11T01:54:28.695Z,7.30
2019-05-11T01:56:58.275Z,7.30
2019-05-11T01:59:27.938Z,7.20
2019-05-11T02:01:57.508Z,7.10
2019-05-11T02:04:27.077Z,7.00
2019-05-11T02:06:56.690Z,7.00
2019-05-11T02:09:26.272Z,7.00
2019-05-11T02:11:55.820Z,7.00
2019-05-11T02:14:25.329Z,7.10
2019-05-11T02:16:54.948Z,7.10
2019-05-11T02:19:24.494Z,7.00
2019-05-11T02:21:54.068Z,6.80
2019-05-11T02:24:23.786Z,6.80
2019-05-11T02:26:53.330Z,6.80
2019-05-11T02:29:22.857Z,6.70
2019-05-11T02:31:52.397Z,6.60
2019-05-11T02:34:21.998Z,6.50
2019-05-11T02:36:51.563Z,6.50
2019-05-11T02:39:21.122Z,6.50
2019-05-11T02:41:51.046Z,6.30
2019-05-11T02:44:20.606Z,6.20
2019-05-11T02:46:50.140Z,6.00
2019-05-11T02:49:19.804Z,6.20
2019-05-11T02:51:49.624Z,6.40
2019-05-11T02:54:19.547Z,6.20
2019-05-11T02:56:49.084Z,6.10
2019-05-11T02:59:18.634Z,6.30
2019-05-11T03:01:48.153Z,6.40
2019-05-11T03:04:17.680Z,6.50
2019-05-11T03:06:47.241Z,6.50
2019-05-11T03:09:16.839Z,6.50
2019-05-11T03:11:55.698Z,6.40
2019-05-11T03:14:17.676Z,6.30
2019-05-11T03:16:49.814Z,6.40
2019-05-11T03:19:19.326Z,6.60
2019-05-11T03:21:48.933Z,6.70
2019-05-11T03:24:18.478Z,6.80
2019-05-11T03:26:48.012Z,6.80
2019-05-11T03:29:17.593Z,6.80
2019-05-11T03:31:47.150Z,6.80
2019-05-11T03:34:16.922Z,6.80
2019-05-11T03:36:46.444Z,6.70
2019-05-11T03:39:16.056Z,6.80
2019-05-11T03:41:45.620Z,6.70
2019-05-11T03:44:15.154Z,6.70
2019-05-11T03:46:44.757Z,6.70
2019-05-11T03:49:14.338Z,6.60
2019-05-11T03:51:43.971Z,6.60
2019-05-11T03:54:13.546Z,6.70
2019-05-11T03:56:43.105Z,6.70
2019-05-11T03:59:13.669Z,6.80
2019-05-11T04:01:43.274Z,7.00
2019-05-11T04:04:16.360Z,7.00
2019-05-11T04:06:44.094Z,7.10
2019-05-11T04:09:13.687Z,7.20
2019-05-11T04:11:43.319Z,7.20
2019-05-11T04:14:12.988Z,7.20
2019-05-11T04:16:42.602Z,7.20
2019-05-11T04:19:12.168Z,7.20
2019-05-11T04:21:41.802Z,7.30
2019-05-11T04:24:11.383Z,7.30
2019-05-11T04:26:40.935Z,7.40
2019-05-11T04:29:10.602Z,7.40
2019-05-11T04:31:40.165Z,7.50
2019-05-11T04:34:09.715Z,7.60
2019-05-11T04:36:39.329Z,7.70
2019-05-11T04:39:09.653Z,7.90
2019-05-11T04:41:39.226Z,8.00
2019-05-11T04:44:08.851Z,8.10
2019-05-11T04:46:38.414Z,8.10
2019-05-11T04:49:08.012Z,8.20
2019-05-11T04:51:37.598Z,8.40
2019-05-11T04:54:07.203Z,8.50
2019-05-11T04:56:36.765Z,8.60
2019-05-11T04:59:06.325Z,8.80
2019-05-11T05:01:35.889Z,8.90
2019-05-11T05:04:13.927Z,8.90
2019-05-11T05:06:38.890Z,9.10
2019-05-11T05:09:08.174Z,9.20
2019-05-11T05:11:38.510Z,9.20
2019-05-11T05:14:10.167Z,9.20
2019-05-11T05:16:39.454Z,9.20
2019-05-11T05:19:09.077Z,9.30
2019-05-11T05:54:02.745Z,10.60
2019-05-11T05:56:33.389Z,10.60
2019-05-11T05:59:03.049Z,10.60
2019-05-11T06:01:32.741Z,10.90
2019-05-11T06:04:02.446Z,11.10
2019-05-11T06:06:32.091Z,11.30
2019-05-11T06:09:01.659Z,11.30
2019-05-11T06:11:31.248Z,11.30
2019-05-11T06:14:01.832Z,11.40
2019-05-11T06:16:31.450Z,11.60
2019-05-11T06:19:01.138Z,11.60
2019-05-11T06:21:30.759Z,11.70
2019-05-11T06:24:05.875Z,11.70
2019-05-11T06:26:31.679Z,11.80
2019-05-11T06:29:02.251Z,11.80
2019-05-11T06:31:33.545Z,11.90
2019-05-11T06:34:03.267Z,12.10
2019-05-11T06:36:33.978Z,12.20
2019-05-11T06:39:06.360Z,12.40
2019-05-11T06:41:36.096Z,12.60
2019-05-11T06:44:06.182Z,12.50
2019-05-11T06:46:35.772Z,12.50
2019-05-11T06:49:05.472Z,12.50
2019-05-11T06:51:35.149Z,12.50
2019-05-11T06:54:06.375Z,12.60
2019-05-11T06:56:36.068Z,12.60
2019-05-11T06:59:05.753Z,12.80
2019-05-11T07:01:35.381Z,13.00
2019-05-11T07:04:05.090Z,12.90
2019-05-11T07:06:34.720Z,13.00
2019-05-11T07:09:06.240Z,13.10
2019-05-11T07:11:36.494Z,13.20
2019-05-11T07:14:19.934Z,13.30
2019-05-11T07:16:37.309Z,13.40
2019-05-11T07:19:06.875Z,13.40
2019-05-11T07:21:36.549Z,13.40
2019-05-11T07:24:06.140Z,13.50
2019-05-11T07:26:35.686Z,13.50
2019-05-11T07:29:05.238Z,13.50
2019-05-11T07:31:34.768Z,13.70
2019-05-11T07:34:04.417Z,13.80
2019-05-11T07:36:33.963Z,13.90
2019-05-11T07:39:08.148Z,14.10
2019-05-11T07:41:38.713Z,14.30
2019-05-11T07:44:10.013Z,14.40
2019-05-11T07:46:39.792Z,14.30
2019-05-11T07:49:09.365Z,14.40
2019-05-11T07:51:39.880Z,14.40
2019-05-11T07:54:09.471Z,14.50
2019-05-11T07:56:39.274Z,14.60
2019-05-11T07:59:08.940Z,14.60
2019-05-11T08:01:38.870Z,14.70
2019-05-11T08:04:08.686Z,14.90
2019-05-11T08:06:39.138Z,15.00
2019-05-11T08:09:08.870Z,15.00
2019-05-11T08:11:39.016Z,15.00
2019-05-11T08:14:09.761Z,15.00
2019-05-11T08:16:39.369Z,15.20
2019-05-11T08:19:10.789Z,15.40
2019-05-11T08:21:40.308Z,15.50
2019-05-11T08:24:09.973Z,15.70
2019-05-11T08:26:40.551Z,15.80
2019-05-11T08:29:10.129Z,15.90
2019-05-11T08:31:39.839Z,16.00
2019-05-11T08:34:09.413Z,16.20
2019-05-11T08:36:39.021Z,16.30
2019-05-11T08:39:08.708Z,16.10
2019-05-11T08:41:38.635Z,16.30
2019-05-11T08:44:09.031Z,16.30
2019-05-11T08:46:38.919Z,16.40
2019-05-11T08:49:09.472Z,16.50
2019-05-11T08:51:39.061Z,16.60
2019-05-11T08:54:09.068Z,16.70
2019-05-11T08:56:38.825Z,16.90
2019-05-11T08:59:08.454Z,16.80
2019-05-11T09:01:39.401Z,17.00
2019-05-11T09:04:09.241Z,17.30
2019-05-11T09:06:39.868Z,17.50
2019-05-11T09:09:11.310Z,17.60
2019-05-11T09:11:40.704Z,17.70
2019-05-11T09:14:10.278Z,17.70
2019-05-11T09:16:39.836Z,17.90
2019-05-11T09:19:09.459Z,18.00
2019-05-11T09:21:39.984Z,18.10
2019-05-11T09:24:09.524Z,18.30
2019-05-11T09:26:39.151Z,18.40
2019-05-11T09:29:08.926Z,18.30
2019-05-11T09:31:38.505Z,18.50
2019-05-11T09:34:09.030Z,18.40
2019-05-11T09:36:39.224Z,18.20
2019-05-11T09:39:08.869Z,18.20
2019-05-11T09:41:38.552Z,18.40
2019-05-11T09:44:09.199Z,18.40
2019-05-11T09:46:38.854Z,18.60
2019-05-11T09:49:08.437Z,18.80
2019-05-11T09:51:38.268Z,18.90
2019-05-11T09:54:08.093Z,18.70
2019-05-11T09:56:38.343Z,17.80
2019-05-11T09:59:08.751Z,18.20
2019-05-11T10:01:38.637Z,18.40
2019-05-11T10:04:08.946Z,18.60
2019-05-11T10:06:39.541Z,18.80
2019-05-11T10:09:09.313Z,19.00
2019-05-11T10:11:39.870Z,19.20
2019-05-11T10:14:09.588Z,19.20
2019-05-11T10:16:39.131Z,19.30
2019-05-11T10:19:08.727Z,19.10
2019-05-11T10:21:38.605Z,19.20
2019-05-11T10:24:08.674Z,19.20
2019-05-11T10:26:38.605Z,19.20
2019-05-11T10:29:09.408Z,19.10
2019-05-11T10:31:38.927Z,19.30
2019-05-11T10:34:08.824Z,19.40
2019-05-11T10:36:38.725Z,19.50
2019-05-11T10:39:09.677Z,19.30
2019-05-11T10:41:39.230Z,19.50
2019-05-11T10:44:08.793Z,19.50
2019-05-11T10:46:38.373Z,19.60
2019-05-11T10:49:08.174Z,19.60
2019-05-11T10:51:38.454Z,19.60
2019-05-11T10:54:08.812Z,19.60
2019-05-11T10:56:39.020Z,19.60
2019-05-11T10:59:08.759Z,19.50
2019-05-11T11:01:38.365Z,19.40
2019-05-11T11:04:08.132Z,18.90
2019-05-11T11:06:38.834Z,18.90
2019-05-11T11:09:09.561Z,19.10
2019-05-11T11:11:39.155Z,19.10
2019-05-11T11:14:08.859Z,19.00
2019-05-11T11:16:42.462Z,18.90
2019-05-11T11:19:09.679Z,18.90
2019-05-11T11:21:39.236Z,19.10
2019-05-11T11:24:08.817Z,19.30
2019-05-11T11:26:38.388Z,19.40
2019-05-11T11:29:08.574Z,19.30
2019-05-11T11:31:38.258Z,19.40
2019-05-11T11:34:08.869Z,19.40
2019-05-11T11:36:38.442Z,19.50
2019-05-11T11:39:08.595Z,19.50
2019-05-11T11:41:38.198Z,19.50
2019-05-11T11:44:08.075Z,19.30
2019-05-11T11:46:50.918Z,19.30
2019-05-11T11:49:09.061Z,19.30
2019-05-11T11:51:38.642Z,19.40
2019-05-11T11:54:08.702Z,19.50
2019-05-11T11:56:38.521Z,19.40
2019-05-11T11:59:08.486Z,19.20
2019-05-11T12:01:38.656Z,19.30
2019-05-11T12:04:08.460Z,19.40
2019-05-11T12:06:38.613Z,19.50
2019-05-11T12:09:09.051Z,19.30
2019-05-11T12:11:38.865Z,19.20
2019-05-11T12:14:08.796Z,19.20
2019-05-11T12:16:38.958Z,19.20
2019-05-11T12:19:08.654Z,19.10
2019-05-11T12:21:39.254Z,19.10
2019-05-11T12:24:08.796Z,19.00
2019-05-11T12:26:38.863Z,19.00
2019-05-11T12:29:08.631Z,19.00
2019-05-11T12:31:38.202Z,19.00
2019-05-11T12:34:08.790Z,19.00
2019-05-11T12:36:38.849Z,19.00
2019-05-11T12:39:08.757Z,18.90
2019-05-11T12:41:38.862Z,18.80
2019-05-11T12:44:09.686Z,18.80
2019-05-11T12:46:39.650Z,18.80
2019-05-11T12:49:09.212Z,18.70
2019-05-11T12:51:38.812Z,18.50
2019-05-11T12:54:08.455Z,18.50
2019-05-11T12:56:38.471Z,18.60
2019-05-11T12:59:08.349Z,18.50
2019-05-11T13:01:38.355Z,18.40
2019-05-11T13:04:08.943Z,18.30
2019-05-11T13:06:38.903Z,18.30
2019-05-11T13:09:09.453Z,18.20
2019-05-11T13:11:39.018Z,18.30
2019-05-11T13:14:08.579Z,18.20
2019-05-11T13:16:38.139Z,18.20
2019-05-11T13:19:08.355Z,18.10
2019-05-11T13:21:38.514Z,17.90
2019-05-11T13:24:08.513Z,17.90
2019-05-11T13:26:38.378Z,17.90
2019-05-11T13:29:07.997Z,17.60
2019-05-11T13:31:38.360Z,17.70
2019-05-11T13:34:08.469Z,17.70
2019-05-11T13:36:39.016Z,17.60
2019-05-11T13:39:09.079Z,17.60
2019-05-11T13:41:38.796Z,17.80
2019-05-11T13:44:08.319Z,17.70
2019-05-11T13:46:38.833Z,17.70
2019-05-11T13:49:08.700Z,17.70
2019-05-11T13:51:38.908Z,17.70
2019-05-11T13:54:08.508Z,17.70
2019-05-11T13:56:38.091Z,17.70
2019-05-11T13:59:10.652Z,17.50
2019-05-11T14:01:40.098Z,17.50
2019-05-11T14:04:09.679Z,17.50
2019-05-11T14:06:39.224Z,17.50
2019-05-11T14:09:09.613Z,17.60
2019-05-11T14:11:39.244Z,17.50
2019-05-11T14:14:08.884Z,17.50
2019-05-11T14:16:38.431Z,17.40
2019-05-11T14:19:08.748Z,17.40
2019-05-11T14:21:38.707Z,17.30
2019-05-11T14:24:08.256Z,17.30
2019-05-11T14:26:38.581Z,17.30
2019-05-11T14:29:08.650Z,17.30
2019-05-11T14:31:38.830Z,17.20
2019-05-11T14:34:09.108Z,17.30
2019-05-11T14:36:38.992Z,17.30
2019-05-11T14:39:08.860Z,17.20
2019-05-11T14:41:38.488Z,17.10
2019-05-11T14:44:08.826Z,16.90
2019-05-11T14:46:38.694Z,16.90
2019-05-11T14:49:08.288Z,16.80
2019-05-11T14:51:39.089Z,16.70
2019-05-11T14:54:09.003Z,16.60
2019-05-11T14:56:38.523Z,16.40
2019-05-11T14:59:09.003Z,16.40
2019-05-11T15:01:38.954Z,16.40
2019-05-11T15:04:09.216Z,16.40
2019-05-11T15:06:39.028Z,16.30
2019-05-11T15:09:08.853Z,16.20
2019-05-11T15:11:38.948Z,16.00
2019-05-11T15:14:08.574Z,16.00
2019-05-11T15:16:38.529Z,16.00
2019-05-11T15:19:08.295Z,16.10
2019-05-11T15:21:38.658Z,15.90
2019-05-11T15:24:09.226Z,15.70
2019-05-11T15:26:38.930Z,15.50
2019-05-11T15:29:08.450Z,15.60
2019-05-11T15:31:38.276Z,15.60
2019-05-11T15:34:08.558Z,15.60
2019-05-11T15:36:38.799Z,15.60
2019-05-11T15:39:08.512Z,15.70
2019-05-11T15:41:38.794Z,15.70
2019-05-11T15:44:11.823Z,15.70
2019-05-11T15:46:39.933Z,15.70
2019-05-11T15:49:09.535Z,15.70
2019-05-11T15:51:41.151Z,15.70
2019-05-11T15:54:10.465Z,15.70
2019-05-11T15:56:40.047Z,15.60
2019-05-11T15:59:09.669Z,15.50
2019-05-11T16:01:41.190Z,15.40
2019-05-11T16:04:10.471Z,15.30
2019-05-11T16:06:40.053Z,15.30
2019-05-11T16:09:09.640Z,15.20
2019-05-11T16:11:39.249Z,15.20
2019-05-11T16:14:09.067Z,15.20
2019-05-11T16:16:39.212Z,15.10
2019-05-11T16:19:14.639Z,15.10
2019-05-11T16:21:40.139Z,15.00
2019-05-11T16:24:09.725Z,14.90
2019-05-11T16:26:39.251Z,14.90
2019-05-11T16:29:11.450Z,14.80
2019-05-11T16:31:40.048Z,14.80
2019-05-11T16:34:09.620Z,14.70
2019-05-11T16:36:39.201Z,14.60
2019-05-11T16:39:10.504Z,14.70
2019-05-11T16:41:40.212Z,14.60
2019-05-11T16:44:09.748Z,14.70
2019-05-11T16:46:39.289Z,14.60
2019-05-11T16:49:10.747Z,14.60
2019-05-11T16:51:40.201Z,14.60
2019-05-11T16:54:09.813Z,14.60
2019-05-11T16:56:39.352Z,14.70
2019-05-11T16:59:09.988Z,14.60
2019-05-11T17:01:39.532Z,14.60
2019-05-11T17:04:09.080Z,14.60
2019-05-11T17:06:42.252Z,14.60
2019-05-11T17:09:11.776Z,14.60
2019-05-11T17:11:41.369Z,14.70
2019-05-11T17:14:10.990Z,14.70
2019-05-11T17:16:40.687Z,14.70
2019-05-11T17:19:10.291Z,14.70
2019-05-11T17:21:39.845Z,14.70
2019-05-11T17:24:09.404Z,14.70
2019-05-11T17:26:38.965Z,14.70
2019-05-11T17:29:10.062Z,14.70
2019-05-11T17:31:39.868Z,14.70
2019-05-11T17:34:09.453Z,14.70
2019-05-11T17:36:39.055Z,14.50
2019-05-11T17:39:08.706Z,14.50
2019-05-11T17:41:38.867Z,14.50
2019-05-11T17:44:08.471Z,14.50
2019-05-11T17:46:38.558Z,14.40
2019-05-11T17:49:08.172Z,14.20
2019-05-11T17:51:38.094Z,14.30
2019-05-11T17:54:08.112Z,14.00
2019-05-11T17:56:39.001Z,14.00
2019-05-11T17:59:08.728Z,13.90
2019-05-11T18:01:38.243Z,13.80
2019-05-11T18:04:08.215Z,14.00
2019-05-11T18:06:38.484Z,14.10
2019-05-11T18:09:08.757Z,14.10
2019-05-11T18:11:38.431Z,14.20
2019-05-11T18:14:08.513Z,14.20
2019-05-11T18:16:38.169Z,14.10
2019-05-11T18:19:08.551Z,14.10
2019-05-11T18:21:38.837Z,14.10
2019-05-11T18:24:09.153Z,14.00
2019-05-11T18:26:38.896Z,13.90
2019-05-11T18:29:08.430Z,13.90
2019-05-11T18:31:38.542Z,13.80
2019-05-11T18:34:08.989Z,13.70
2019-05-11T18:36:38.725Z,13.60
2019-05-11T18:39:08.812Z,13.60
2019-05-11T18:41:39.042Z,13.50
2019-05-11T18:44:09.149Z,13.50
2019-05-11T18:46:39.108Z,13.50
2019-05-11T18:49:08.830Z,13.40
2019-05-11T18:51:38.364Z,13.40
2019-05-11T18:54:09.298Z,13.30
2019-05-11T18:56:39.215Z,13.30
2019-05-11T18:59:09.163Z,13.30
2019-05-11T19:01:38.760Z,13.20
2019-05-11T19:04:08.329Z,13.20
2019-05-11T19:06:40.674Z,13.20
2019-05-11T19:09:10.332Z,13.10
2019-05-11T19:11:42.667Z,13.10
2019-05-11T19:14:11.153Z,13.00
2019-05-11T19:16:40.676Z,12.90
2019-05-11T19:19:10.251Z,12.90
2019-05-11T19:21:39.803Z,12.90
2019-05-11T19:24:09.555Z,12.90
2019-05-11T19:26:39.270Z,12.80
2019-05-11T19:29:09.084Z,12.80
2019-05-11T19:31:38.994Z,12.80
2019-05-11T19:34:08.543Z,12.70
2019-05-11T19:36:38.321Z,12.70
2019-05-11T19:39:09.067Z,12.60
2019-05-11T19:41:38.839Z,12.60
2019-05-11T19:44:08.678Z,12.60
2019-05-11T19:46:38.903Z,12.50
2019-05-11T19:49:08.780Z,12.50
2019-05-11T19:51:42.357Z,12.40
2019-05-11T19:54:09.806Z,12.40
2019-05-11T19:56:39.357Z,12.40
2019-05-11T19:59:09.002Z,12.40
2019-05-11T20:01:38.541Z,12.40
2019-05-11T20:04:08.324Z,12.40
2019-05-11T20:06:38.583Z,12.40
2019-05-11T20:09:08.879Z,12.30
2019-05-11T20:11:38.571Z,12.20
2019-05-11T20:14:09.203Z,12.10
2019-05-11T20:16:38.918Z,12.10
2019-05-11T20:19:08.770Z,12.10
2019-05-11T20:21:38.364Z,12.00
2019-05-11T20:24:08.541Z,12.00
2019-05-11T20:26:38.309Z,12.00
2019-05-11T20:29:08.311Z,12.00
2019-05-11T20:31:37.935Z,12.10
2019-05-11T20:34:07.584Z,12.10
2019-05-11T20:36:37.130Z,12.00
2019-05-11T20:39:07.639Z,11.90
2019-05-11T20:41:38.524Z,12.00
2019-05-11T20:44:08.737Z,12.00
2019-05-11T20:46:38.539Z,11.90
2019-05-11T20:49:08.147Z,11.90
2019-05-11T20:51:37.680Z,11.90
2019-05-11T20:54:08.787Z,11.90
2019-05-11T20:56:38.942Z,11.90
2019-05-11T20:59:08.564Z,11.80
2019-05-11T21:01:38.687Z,11.80
2019-05-11T21:04:08.657Z,11.70
2019-05-11T21:06:38.237Z,11.70
2019-05-11T21:09:08.049Z,11.70
2019-05-11T21:11:37.630Z,11.80
2019-05-11T21:14:08.066Z,11.70
2019-05-11T21:16:38.619Z,11.70
2019-05-11T21:19:08.445Z,11.70
2019-05-11T21:21:49.566Z,11.70
2019-05-11T21:24:09.227Z,11.50
2019-05-11T21:26:38.739Z,11.60
2019-05-11T21:29:08.680Z,11.60
2019-05-11T21:31:40.832Z,11.50
2019-05-11T21:34:09.573Z,11.60
2019-05-11T21:36:39.119Z,11.60
2019-05-11T21:39:09.361Z,11.60
2019-05-11T21:41:38.897Z,11.50
2019-05-11T21:44:08.570Z,11.50
2019-05-11T21:46:38.850Z,11.50
2019-05-11T21:49:08.566Z,11.50
2019-05-11T21:51:38.227Z,11.60
2019-05-11T21:54:07.889Z,11.40
2019-05-11T21:56:38.051Z,11.40
2019-05-11T21:59:08.777Z,11.40
2019-05-11T22:01:38.689Z,11.40
2019-05-11T22:04:11.212Z,11.20
2019-05-11T22:06:39.571Z,11.20
2019-05-11T22:09:09.253Z,11.00
2019-05-11T22:11:38.792Z,11.00
2019-05-11T22:14:08.420Z,10.90
2019-05-11T22:16:38.742Z,10.80
2019-05-11T22:19:09.427Z,10.90
2019-05-11T22:21:39.010Z,10.90
2019-05-11T22:24:08.719Z,10.70
2019-05-11T22:26:38.386Z,10.80
2019-05-11T22:29:08.016Z,10.80
2019-05-11T22:31:38.598Z,10.80
2019-05-11T22:34:09.032Z,10.80
2019-05-11T22:36:38.752Z,10.70
2019-05-11T22:39:08.722Z,10.50
2019-05-11T22:41:39.731Z,10.50
2019-05-11T22:44:10.890Z,10.30
2019-05-11T22:46:40.745Z,10.40
2019-05-11T22:49:10.334Z,10.50
2019-05-11T22:51:39.877Z,10.50
2019-05-11T22:54:11.026Z,10.60
2019-05-11T22:56:40.696Z,10.40
2019-05-11T22:59:10.244Z,10.50
2019-05-11T23:01:40.806Z,10.40
2019-05-11T23:04:11.311Z,10.30
2019-05-11T23:06:40.864Z,10.40
2019-05-11T23:09:10.413Z,10.50
2019-05-11T23:11:40.005Z,10.70
2019-05-11T23:14:10.151Z,10.60
2019-05-11T23:16:39.951Z,10.60
2019-05-11T23:19:09.806Z,10.60
2019-05-11T23:21:39.416Z,10.30
2019-05-11T23:24:08.951Z,10.20
2019-05-11T23:26:38.735Z,10.20
2019-05-11T23:29:09.392Z,10.20
2019-05-11T23:31:38.943Z,10.20
2019-05-11T23:34:08.544Z,10.20
2019-05-11T23:36:38.408Z,10.40
2019-05-11T23:39:09.032Z,10.20
2019-05-11T23:41:38.778Z,10.10
2019-05-11T23:44:09.760Z,10.10
2019-05-11T23:46:39.376Z,10.30
2019-05-11T23:49:09.014Z,10.20
2019-05-11T23:51:38.812Z,10.10
2019-05-11T23:54:08.580Z,10.20
2019-05-11T23:56:38.684Z,10.20
2019-05-11T23:59:08.469Z,10.10
